Andersonville, Tennessee
Current Conditions -  °F | °C
As of 9:53 PM on Tuesday 21 Oct 2014 (Local Time) from KOQT Reporting Station
Few Clouds Few Clouds  
Wind Chill: 54°   Ceiling: Unl
Heat Index: 54°   Visibility: 10mi
Dew Point: 41°   Wind: 0mph
Humidity: 62%   Direction: NA
Pressure: 30.12"   Gusts: NA
Location:  36.2°N, 84.04°W
Report Text: KOQT 220153Z AUTO 00000KT 10SM FEW055 12/05 A3012 RMK AO2 SLP197 T01220050
Loading
Personal Weather Stations






























Interactive Weather Map
Tropical Storm Tracking
New forecast layout! Learn more

10-Day Weather Forecast

Advertisements
Track Severe Weather on mobile